Share

Fourmile, KY (40939)

Colmar (KKYMIDDL2) Elev 1135 ft | 36.66 °N, 83.67 °W | Change Station

Current weather conditions updated 13 minutes ago

Clear
Clear
70.5 °F
Feels Like 77 °F
N
6.0
Wind Variable Wind from SSW
Sunrise 6:55 AM
Sunset 8:12 PM
Moon Waning Gibbous

Today is forecast to be nearly the same temperature as yesterday.

Pressure 30.20 in
Visibility 10.0 miles
Clouds Clear
Heat Index 77 °F
Dew Point 41 °F
Humidity 34%
Rainfall 0.00 in
Snow Depth Not available.
UV 7 out of 16
Pollen 10.00 out of 12
Air Quality Not available.
Flu Activity Sporadic
METAR K1A6 191515Z AUTO 02009KT 10SM CLR 19/03 A3020 RMK AO2 T01860027

More Conditions Fewer Conditions

Pressure 30.20 in
Visibility 10.0 miles
Clouds Clear
Heat Index 77 °F
Dew Point 41 °F
Humidity 34%
Rainfall 0.00 in
Snow Depth Not available.
UV 7 out of 16
Pollen 10.00 out of 12
Air Quality Not available.
Flu Activity Sporadic
METAR K1A6 191515Z AUTO 02009KT 10SM CLR 19/03 A3020 RMK AO2 T01860027

More Conditions Fewer Conditions

10-Day Weather Forecast

Almanac

Astronomy

Apr. 19, 2014 Rise Set
Actual Time 6:55 AM EDT 8:12 PM EDT
Civil Twilight 6:28 AM EDT 8:39 PM EDT
Nautical Twilight 5:56 AM EDT 9:12 PM EDT
Astronomical Twilight 5:22 AM EDT 9:45 PM EDT
Moon No Moon Rise 10:16 AM EDT
Length of Visible Light 14h 11m
Length of Day
13h 17m
Tomorrow will be 2m 11s longer.
Waning Gibbous, 79% of the Moon is Illuminated
Today
Waning Gibbous
Apr 22
Last Quarter
Apr 29
New
May 6
First Quarter
May 14
Full

Today's Extremes

State Highs State Lows

Community

  • A Glorious Morning
    A Glorious Morning
  • Tender Rays Of Hope
    Tender Rays Of Hope
  • Bleeding Hearts
    Bleeding Hearts
  • Sunset Silhouettes
    Sunset Silhouettes
  • FL sunset Perico Isle
    FL sunset Perico Isle

WunderPhotos

Upload Photos

1,702,767 photos uploaded!

WunderBlogs® & News

Nearby

Snow Depth

Station Depth Elevation
No new snow has been reported.

Coastal Water Temperatures

Place Temperature
No Stations Reporting

Earthquake Activity

City Distance Mag. Time & Date
Englewood, Tennessee 99 miles 2.8 10:34 PM EDT
2014-04-12
Minimum magnitude displayed is 2.5.

Nearby Weather Stations

Station Location Temp. Heat Index Dew Point Humidity Wind Precip. Elev Updated Type
Colmar, Middlesboro, KY 70.5 °F 77 °F 41 °F 34% SSW  at  6.0 mph - / hr 1135 ft 11:24 AM EDT Normal
RAWS YELLOW CREEK KY, Middlesboro, KY 62 °F - 37 °F 40% WSW  at  3 mph 0.00 in / hr 1089 ft 10:26 AM EDT MADIS
liford's, Barbourville, KY 70.7 °F 76 °F 40 °F 33% East  at  3.2 mph - / hr 1066 ft 11:35 AM EDT Normal
Mackey Bend, Barbourville, KY 70.0 °F - 37 °F 30% NE  at  4.2 mph - / hr 981 ft 11:35 AM EDT Normal
White Rocks View, Rose Hill, VA 64.9 °F - 44 °F 46% NNW  at  12.0 mph 0.00 in / hr 1470 ft 11:38 AM EDT Rapid Fire

Show More Stations Show Fewer Stations

What do you think?

We're not finished. Please let us know what you like, what you don't like, and what you are still missing.